sensor_id;sensor_type;location;lat;lon;timestamp;pressure;altitude;pressure_sealevel;temperature;humidity
65329;BME280;51941;52.210;5.158;2023-07-13T00:01:51;101263.75;;;17.43;100.00
65329;BME280;51941;52.210;5.158;2023-07-13T00:04:20;101267.19;;;17.38;100.00
65329;BME280;51941;52.210;5.158;2023-07-13T00:06:48;101269.63;;;17.35;100.00
65329;BME280;51941;52.210;5.158;2023-07-13T00:09:17;101271.19;;;17.31;100.00
65329;BME280;51941;52.210;5.158;2023-07-13T00:11:45;101262.91;;;17.27;100.00
65329;BME280;51941;52.210;5.158;2023-07-13T00:14:14;101270.41;;;17.25;100.00
65329;BME280;51941;52.210;5.158;2023-07-13T00:16:42;101277.38;;;17.26;100.00
65329;BME280;51941;52.210;5.158;2023-07-13T00:19:09;101275.22;;;17.23;100.00
65329;BME280;51941;52.210;5.158;2023-07-13T00:21:37;101273.34;;;17.24;100.00
65329;BME280;51941;52.210;5.158;2023-07-13T00:24:04;101271.97;;;17.21;100.00
65329;BME280;51941;52.210;5.158;2023-07-13T00:26:32;101265.06;;;17.20;100.00
65329;BME280;51941;52.210;5.158;2023-07-13T00:28:59;101269.59;;;17.20;100.00
65329;BME280;51941;52.210;5.158;2023-07-13T00:31:30;101271.97;;;17.16;100.00
65329;BME280;51941;52.210;5.158;2023-07-13T00:33:57;101269.81;;;17.13;100.00
65329;BME280;51941;52.210;5.158;2023-07-13T00:36:25;101281.31;;;17.14;100.00
65329;BME280;51941;52.210;5.158;2023-07-13T00:38:53;101269.81;;;17.13;100.00
65329;BME280;51941;52.210;5.158;2023-07-13T00:41:20;101272.25;;;17.10;100.00
65329;BME280;51941;52.210;5.158;2023-07-13T00:43:47;101273.31;;;17.09;100.00
65329;BME280;51941;52.210;5.158;2023-07-13T00:46:22;101265.78;;;17.05;100.00
65329;BME280;51941;52.210;5.158;2023-07-13T00:48:52;101270.88;;;17.02;100.00
65329;BME280;51941;52.210;5.158;2023-07-13T00:51:25;101266.31;;;16.97;100.00
65329;BME280;51941;52.210;5.158;2023-07-13T00:53:54;101264.94;;;16.90;100.00
65329;BME280;51941;52.210;5.158;2023-07-13T00:56:23;101267.63;;;16.90;100.00
65329;BME280;51941;52.210;5.158;2023-07-13T00:58:50;101274.84;;;16.89;100.00
65329;BME280;51941;52.210;5.158;2023-07-13T01:01:18;101269.75;;;16.88;100.00
65329;BME280;51941;52.210;5.158;2023-07-13T01:03:45;101271.09;;;16.85;100.00
65329;BME280;51941;52.210;5.158;2023-07-13T01:06:14;101267.88;;;16.83;100.00
65329;BME280;51941;52.210;5.158;2023-07-13T01:08:43;101274.53;;;16.81;100.00
65329;BME280;51941;52.210;5.158;2023-07-13T01:11:10;101282.00;;;16.79;100.00
65329;BME280;51941;52.210;5.158;2023-07-13T01:13:36;101282.78;;;16.74;100.00
65329;BME280;51941;52.210;5.158;2023-07-13T01:16:11;101272.63;;;16.71;100.00
65329;BME280;51941;52.210;5.158;2023-07-13T01:18:39;101278.75;;;16.66;100.00
65329;BME280;51941;52.210;5.158;2023-07-13T01:21:08;101276.59;;;16.63;100.00
65329;BME280;51941;52.210;5.158;2023-07-13T01:23:35;101265.53;;;16.50;100.00
65329;BME280;51941;52.210;5.158;2023-07-13T01:26:01;101276.81;;;16.57;100.00
65329;BME280;51941;52.210;5.158;2023-07-13T01:28:29;101280.78;;;16.54;100.00
65329;BME280;51941;52.210;5.158;2023-07-13T01:30:58;101279.97;;;16.54;100.00
65329;BME280;51941;52.210;5.158;2023-07-13T01:33:25;101282.66;;;16.54;100.00
65329;BME280;51941;52.210;5.158;2023-07-13T01:35:53;101288.56;;;16.56;100.00
65329;BME280;51941;52.210;5.158;2023-07-13T01:38:25;101292.84;;;16.57;100.00
65329;BME280;51941;52.210;5.158;2023-07-13T01:40:52;101285.88;;;16.56;100.00
65329;BME280;51941;52.210;5.158;2023-07-13T01:43:19;101294.44;;;16.58;100.00
65329;BME280;51941;52.210;5.158;2023-07-13T01:45:46;101285.31;;;16.54;100.00
65329;BME280;51941;52.210;5.158;2023-07-13T01:48:13;101282.63;;;16.49;100.00
65329;BME280;51941;52.210;5.158;2023-07-13T01:50:41;101280.47;;;16.41;100.00
65329;BME280;51941;52.210;5.158;2023-07-13T01:53:08;101299.69;;;16.43;100.00
65329;BME280;51941;52.210;5.158;2023-07-13T01:55:37;101301.84;;;16.41;100.00
65329;BME280;51941;52.210;5.158;2023-07-13T01:58:04;101296.16;;;16.32;100.00
65329;BME280;51941;52.210;5.158;2023-07-13T02:00:31;101290.53;;;16.28;100.00
65329;BME280;51941;52.210;5.158;2023-07-13T02:02:58;101296.66;;;16.29;100.00
65329;BME280;51941;52.210;5.158;2023-07-13T02:05:25;101295.31;;;16.26;100.00
65329;BME280;51941;52.210;5.158;2023-07-13T02:07:52;101296.91;;;16.22;100.00
65329;BME280;51941;52.210;5.158;2023-07-13T02:10:19;101303.56;;;16.20;100.00
65329;BME280;51941;52.210;5.158;2023-07-13T02:12:48;101303.81;;;16.18;100.00
65329;BME280;51941;52.210;5.158;2023-07-13T02:15:15;101308.06;;;16.14;100.00
65329;BME280;51941;52.210;5.158;2023-07-13T02:17:42;101306.69;;;16.12;100.00
65329;BME280;51941;52.210;5.158;2023-07-13T02:20:10;101309.63;;;16.10;100.00
65329;BME280;51941;52.210;5.158;2023-07-13T02:22:37;101307.72;;;16.06;100.00
65329;BME280;51941;52.210;5.158;2023-07-13T02:25:04;101311.72;;;16.03;100.00
65329;BME280;51941;52.210;5.158;2023-07-13T02:27:31;101319.97;;;16.02;100.00
65329;BME280;51941;52.210;5.158;2023-07-13T02:30:00;101306.28;;;15.93;100.00
65329;BME280;51941;52.210;5.158;2023-07-13T02:32:27;101314.84;;;15.95;100.00
65329;BME280;51941;52.210;5.158;2023-07-13T02:34:53;101313.72;;;15.91;100.00
65329;BME280;51941;52.210;5.158;2023-07-13T02:37:21;101316.13;;;15.87;100.00
65329;BME280;51941;52.210;5.158;2023-07-13T02:39:48;101313.13;;;15.84;100.00
65329;BME280;51941;52.210;5.158;2023-07-13T02:42:15;101305.63;;;15.81;100.00
65329;BME280;51941;52.210;5.158;2023-07-13T02:44:43;101313.63;;;15.81;100.00
65329;BME280;51941;52.210;5.158;2023-07-13T02:47:12;101325.69;;;15.83;100.00
65329;BME280;51941;52.210;5.158;2023-07-13T02:49:39;101317.66;;;15.83;100.00
65329;BME280;51941;52.210;5.158;2023-07-13T02:52:06;101320.59;;;15.82;100.00
65329;BME280;51941;52.210;5.158;2023-07-13T02:54:33;101313.13;;;15.84;100.00
65329;BME280;51941;52.210;5.158;2023-07-13T02:57:01;101319.84;;;15.86;100.00
65329;BME280;51941;52.210;5.158;2023-07-13T02:59:27;101318.50;;;15.89;100.00
65329;BME280;51941;52.210;5.158;2023-07-13T03:01:54;101314.50;;;15.86;100.00
65329;BME280;51941;52.210;5.158;2023-07-13T03:04:23;101318.78;;;15.87;100.00
65329;BME280;51941;52.210;5.158;2023-07-13T03:06:50;101313.69;;;15.86;100.00
65329;BME280;51941;52.210;5.158;2023-07-13T03:09:17;101317.97;;;15.87;100.00
65329;BME280;51941;52.210;5.158;2023-07-13T03:11:52;101316.94;;;15.88;100.00
65329;BME280;51941;52.210;5.158;2023-07-13T03:14:25;101324.94;;;15.88;100.00
65329;BME280;51941;52.210;5.158;2023-07-13T03:16:52;101322.00;;;15.89;100.00
65329;BME280;51941;52.210;5.158;2023-07-13T03:19:23;101334.03;;;15.92;100.00
65329;BME280;51941;52.210;5.158;2023-07-13T03:21:51;101324.72;;;15.95;100.00
65329;BME280;51941;52.210;5.158;2023-07-13T03:24:18;101327.41;;;16.00;100.00
65329;BME280;51941;52.210;5.158;2023-07-13T03:26:46;101325.06;;;16.03;100.00
65329;BME280;51941;52.210;5.158;2023-07-13T03:29:12;101321.34;;;16.09;100.00
65329;BME280;51941;52.210;5.158;2023-07-13T03:31:40;101326.19;;;16.12;100.00
65329;BME280;51941;52.210;5.158;2023-07-13T03:34:06;101327.56;;;16.15;100.00
65329;BME280;51941;52.210;5.158;2023-07-13T03:36:36;101339.09;;;16.20;100.00
65329;BME280;51941;52.210;5.158;2023-07-13T03:39:08;101341.25;;;16.23;100.00
65329;BME280;51941;52.210;5.158;2023-07-13T03:41:55;101341.28;;;16.28;100.00
65329;BME280;51941;52.210;5.158;2023-07-13T03:44:22;101344.50;;;16.30;100.00
65329;BME280;51941;52.210;5.158;2023-07-13T03:46:53;101336.75;;;16.29;100.00
65329;BME280;51941;52.210;5.158;2023-07-13T03:49:20;101336.69;;;16.24;100.00
65329;BME280;51941;52.210;5.158;2023-07-13T03:51:48;101345.50;;;16.24;100.00
65329;BME280;51941;52.210;5.158;2023-07-13T03:54:15;101346.84;;;16.22;100.00
65329;BME280;51941;52.210;5.158;2023-07-13T03:56:43;101342.00;;;16.19;100.00
65329;BME280;51941;52.210;5.158;2023-07-13T03:59:11;101351.59;;;16.15;100.00
65329;BME280;51941;52.210;5.158;2023-07-13T04:01:38;101348.38;;;16.13;100.00
65329;BME280;51941;52.210;5.158;2023-07-13T04:04:05;101350.00;;;16.14;100.00
65329;BME280;51941;52.210;5.158;2023-07-13T04:06:32;101354.53;;;16.13;100.00
65329;BME280;51941;52.210;5.158;2023-07-13T04:09:02;101355.31;;;16.14;100.00
65329;BME280;51941;52.210;5.158;2023-07-13T04:11:32;101355.56;;;16.12;100.00
65329;BME280;51941;52.210;5.158;2023-07-13T04:13:59;101360.91;;;16.12;100.00
65329;BME280;51941;52.210;5.158;2023-07-13T04:16:26;101365.19;;;16.13;100.00
65329;BME280;51941;52.210;5.158;2023-07-13T04:18:54;101365.72;;;16.15;100.00
65329;BME280;51941;52.210;5.158;2023-07-13T04:21:25;101371.63;;;16.17;100.00
65329;BME280;51941;52.210;5.158;2023-07-13T04:23:52;101359.63;;;16.20;100.00
65329;BME280;51941;52.210;5.158;2023-07-13T04:26:21;101363.94;;;16.21;100.00
65329;BME280;51941;52.210;5.158;2023-07-13T04:28:48;101361.50;;;16.19;100.00
65329;BME280;51941;52.210;5.158;2023-07-13T04:31:15;101361.00;;;16.22;100.00
65329;BME280;51941;52.210;5.158;2023-07-13T04:33:42;101371.16;;;16.25;100.00
65329;BME280;51941;52.210;5.158;2023-07-13T04:36:09;101371.47;;;16.29;100.00
65329;BME280;51941;52.210;5.158;2023-07-13T04:38:36;101376.03;;;16.34;100.00
65329;BME280;51941;52.210;5.158;2023-07-13T04:41:06;101377.69;;;16.40;100.00
65329;BME280;51941;52.210;5.158;2023-07-13T04:43:34;101376.91;;;16.39;100.00
65329;BME280;51941;52.210;5.158;2023-07-13T04:46:06;101385.81;;;16.50;100.00
65329;BME280;51941;52.210;5.158;2023-07-13T04:48:33;101384.88;;;16.66;100.00
65329;BME280;51941;52.210;5.158;2023-07-13T04:51:00;101372.53;;;17.12;100.00
65329;BME280;51941;52.210;5.158;2023-07-13T04:53:28;101381.06;;;17.71;100.00
65329;BME280;51941;52.210;5.158;2023-07-13T04:55:55;101375.75;;;18.27;100.00
65329;BME280;51941;52.210;5.158;2023-07-13T04:58:23;101372.53;;;18.76;100.00
65329;BME280;51941;52.210;5.158;2023-07-13T05:00:52;101371.00;;;19.24;100.00
65329;BME280;51941;52.210;5.158;2023-07-13T05:03:19;101375.88;;;19.71;100.00
65329;BME280;51941;52.210;5.158;2023-07-13T05:05:55;101373.16;;;20.15;100.00
65329;BME280;51941;52.210;5.158;2023-07-13T05:08:22;101376.63;;;20.55;100.00
65329;BME280;51941;52.210;5.158;2023-07-13T05:10:49;101384.63;;;20.84;100.00
65329;BME280;51941;52.210;5.158;2023-07-13T05:13:16;101379.97;;;21.18;100.00
65329;BME280;51941;52.210;5.158;2023-07-13T05:15:44;101384.53;;;21.60;100.00
65329;BME280;51941;52.210;5.158;2023-07-13T05:18:12;101395.59;;;21.96;100.00
65329;BME280;51941;52.210;5.158;2023-07-13T05:20:39;101397.41;;;22.19;100.00
65329;BME280;51941;52.210;5.158;2023-07-13T05:23:06;101395.81;;;22.18;100.00
65329;BME280;51941;52.210;5.158;2023-07-13T05:25:33;101398.88;;;22.12;100.00
65329;BME280;51941;52.210;5.158;2023-07-13T05:28:00;101399.56;;;21.85;100.00
65329;BME280;51941;52.210;5.158;2023-07-13T05:30:26;101402.84;;;21.39;100.00
65329;BME280;51941;52.210;5.158;2023-07-13T05:32:53;101406.72;;;21.52;100.00
65329;BME280;51941;52.210;5.158;2023-07-13T05:35:22;101411.53;;;21.55;100.00
65329;BME280;51941;52.210;5.158;2023-07-13T05:37:48;101414.03;;;21.51;100.00
65329;BME280;51941;52.210;5.158;2023-07-13T05:40:15;101412.38;;;21.74;100.00
65329;BME280;51941;52.210;5.158;2023-07-13T05:42:42;101412.72;;;22.05;100.00
65329;BME280;51941;52.210;5.158;2023-07-13T05:45:09;101409.25;;;21.86;100.00
65329;BME280;51941;52.210;5.158;2023-07-13T05:47:36;101410.59;;;21.65;100.00
65329;BME280;51941;52.210;5.158;2023-07-13T05:50:04;101416.84;;;21.41;100.00
65329;BME280;51941;52.210;5.158;2023-07-13T05:52:32;101414.28;;;21.31;100.00
65329;BME280;51941;52.210;5.158;2023-07-13T05:54:59;101418.97;;;21.21;100.00
65329;BME280;51941;52.210;5.158;2023-07-13T05:57:26;101427.84;;;20.97;100.00
65329;BME280;51941;52.210;5.158;2023-07-13T05:59:53;101425.25;;;20.87;100.00
65329;BME280;51941;52.210;5.158;2023-07-13T06:02:19;101424.63;;;20.95;100.00
65329;BME280;51941;52.210;5.158;2023-07-13T06:04:46;101429.03;;;21.10;100.00
65329;BME280;51941;52.210;5.158;2023-07-13T06:07:13;101442.78;;;21.08;100.00
65329;BME280;51941;52.210;5.158;2023-07-13T06:09:41;101435.94;;;20.92;100.00
65329;BME280;51941;52.210;5.158;2023-07-13T06:12:08;101440.13;;;20.80;100.00
65329;BME280;51941;52.210;5.158;2023-07-13T06:14:35;101442.13;;;20.64;100.00
65329;BME280;51941;52.210;5.158;2023-07-13T06:17:03;101440.06;;;20.56;100.00
65329;BME280;51941;52.210;5.158;2023-07-13T06:19:30;101450.13;;;20.45;100.00
65329;BME280;51941;52.210;5.158;2023-07-13T06:21:57;101441.84;;;20.36;100.00
65329;BME280;51941;52.210;5.158;2023-07-13T06:24:25;101431.56;;;20.72;100.00
65329;BME280;51941;52.210;5.158;2023-07-13T06:26:54;101449.22;;;21.36;100.00
65329;BME280;51941;52.210;5.158;2023-07-13T06:29:21;101445.59;;;22.07;100.00
65329;BME280;51941;52.210;5.158;2023-07-13T06:31:48;101446.03;;;22.93;100.00
65329;BME280;51941;52.210;5.158;2023-07-13T06:34:15;101444.56;;;23.55;100.00
65329;BME280;51941;52.210;5.158;2023-07-13T06:36:41;101450.78;;;24.05;97.68
65329;BME280;51941;52.210;5.158;2023-07-13T06:39:08;101449.53;;;24.56;93.30
65329;BME280;51941;52.210;5.158;2023-07-13T06:41:35;101441.28;;;24.83;88.06
65329;BME280;51941;52.210;5.158;2023-07-13T06:44:10;101442.09;;;25.32;85.99
65329;BME280;51941;52.210;5.158;2023-07-13T06:46:37;101455.38;;;25.42;86.28
65329;BME280;51941;52.210;5.158;2023-07-13T06:49:04;101471.03;;;25.14;86.12
65329;BME280;51941;52.210;5.158;2023-07-13T06:51:31;101461.75;;;25.07;87.06
65329;BME280;51941;52.210;5.158;2023-07-13T06:53:58;101456.78;;;24.92;85.46
65329;BME280;51941;52.210;5.158;2023-07-13T06:56:24;101464.56;;;24.40;88.14
65329;BME280;51941;52.210;5.158;2023-07-13T06:58:51;101483.41;;;23.59;94.64
65329;BME280;51941;52.210;5.158;2023-07-13T07:01:20;101490.94;;;22.89;98.66
65329;BME280;51941;52.210;5.158;2023-07-13T07:03:47;101485.88;;;21.99;100.00
65329;BME280;51941;52.210;5.158;2023-07-13T07:06:16;101475.75;;;21.24;100.00
65329;BME280;51941;52.210;5.158;2023-07-13T07:08:44;101482.91;;;20.76;100.00
65329;BME280;51941;52.210;5.158;2023-07-13T07:11:12;101488.00;;;20.49;100.00
65329;BME280;51941;52.210;5.158;2023-07-13T07:13:40;101500.81;;;20.23;100.00
65329;BME280;51941;52.210;5.158;2023-07-13T07:16:07;101509.75;;;20.03;100.00
65329;BME280;51941;52.210;5.158;2023-07-13T07:18:35;101490.00;;;19.79;100.00
65329;BME280;51941;52.210;5.158;2023-07-13T07:21:03;101489.88;;;19.45;100.00
65329;BME280;51941;52.210;5.158;2023-07-13T07:23:30;101493.41;;;19.20;100.00
65329;BME280;51941;52.210;5.158;2023-07-13T07:25:57;101491.03;;;18.88;100.00
65329;BME280;51941;52.210;5.158;2023-07-13T07:28:24;101498.03;;;18.69;100.00
65329;BME280;51941;52.210;5.158;2023-07-13T07:30:55;101501.25;;;18.50;100.00
65329;BME280;51941;52.210;5.158;2023-07-13T07:33:22;101496.66;;;18.41;100.00
65329;BME280;51941;52.210;5.158;2023-07-13T07:35:53;101491.59;;;18.54;100.00
65329;BME280;51941;52.210;5.158;2023-07-13T07:38:20;101497.75;;;18.70;100.00
65329;BME280;51941;52.210;5.158;2023-07-13T07:40:46;101495.88;;;18.76;100.00
65329;BME280;51941;52.210;5.158;2023-07-13T07:43:13;101492.41;;;18.85;100.00
65329;BME280;51941;52.210;5.158;2023-07-13T07:45:40;101493.66;;;19.28;100.00
65329;BME280;51941;52.210;5.158;2023-07-13T07:48:07;101500.75;;;20.33;100.00
65329;BME280;51941;52.210;5.158;2023-07-13T07:50:35;101497.34;;;21.67;100.00
65329;BME280;51941;52.210;5.158;2023-07-13T07:53:03;101498.94;;;22.94;100.00
65329;BME280;51941;52.210;5.158;2023-07-13T07:55:33;101498.78;;;24.00;100.00
65329;BME280;51941;52.210;5.158;2023-07-13T07:58:00;101501.28;;;24.55;100.00
65329;BME280;51941;52.210;5.158;2023-07-13T08:00:28;101506.66;;;24.99;100.00
65329;BME280;51941;52.210;5.158;2023-07-13T08:02:56;101503.88;;;24.82;97.10
65329;BME280;51941;52.210;5.158;2023-07-13T08:05:22;101500.31;;;24.73;97.85
65329;BME280;51941;52.210;5.158;2023-07-13T08:07:49;101484.13;;;24.81;97.24
65329;BME280;51941;52.210;5.158;2023-07-13T08:10:17;101496.53;;;25.13;95.86
65329;BME280;51941;52.210;5.158;2023-07-13T08:12:44;101493.88;;;25.79;93.49
65329;BME280;51941;52.210;5.158;2023-07-13T08:15:14;101492.78;;;26.49;87.50
65329;BME280;51941;52.210;5.158;2023-07-13T08:17:41;101503.84;;;27.07;83.66
65329;BME280;51941;52.210;5.158;2023-07-13T08:20:09;101501.97;;;27.37;79.47
65329;BME280;51941;52.210;5.158;2023-07-13T08:22:36;101504.13;;;27.23;80.45
65329;BME280;51941;52.210;5.158;2023-07-13T08:25:03;101513.53;;;26.62;83.81
65329;BME280;51941;52.210;5.158;2023-07-13T08:27:33;101507.75;;;25.77;86.81
65329;BME280;51941;52.210;5.158;2023-07-13T08:30:00;101506.75;;;24.85;90.84
65329;BME280;51941;52.210;5.158;2023-07-13T08:32:26;101513.28;;;24.04;95.74
65329;BME280;51941;52.210;5.158;2023-07-13T08:34:53;101516.28;;;23.07;93.82
65329;BME280;51941;52.210;5.158;2023-07-13T08:37:20;101534.84;;;22.24;96.72
65329;BME280;51941;52.210;5.158;2023-07-13T08:39:47;101526.28;;;21.56;98.59
65329;BME280;51941;52.210;5.158;2023-07-13T08:42:22;101522.28;;;21.01;100.00
65329;BME280;51941;52.210;5.158;2023-07-13T08:45:00;101521.84;;;20.55;100.00
65329;BME280;51941;52.210;5.158;2023-07-13T08:47:33;101521.03;;;20.54;100.00
65329;BME280;51941;52.210;5.158;2023-07-13T08:50:03;101521.00;;;20.59;100.00
65329;BME280;51941;52.210;5.158;2023-07-13T08:52:34;101522.56;;;20.65;100.00
65329;BME280;51941;52.210;5.158;2023-07-13T08:55:08;101512.06;;;20.64;100.00
65329;BME280;51941;52.210;5.158;2023-07-13T08:57:39;101514.94;;;20.77;100.00
65329;BME280;51941;52.210;5.158;2023-07-13T09:00:12;101527.72;;;20.91;100.00
65329;BME280;51941;52.210;5.158;2023-07-13T09:02:45;101527.00;;;21.14;100.00
65329;BME280;51941;52.210;5.158;2023-07-13T09:05:15;101513.88;;;21.07;100.00
65329;BME280;51941;52.210;5.158;2023-07-13T09:08:04;101529.31;;;20.97;100.00
65329;BME280;51941;52.210;5.158;2023-07-13T09:10:41;101523.53;;;20.80;100.00
65329;BME280;51941;52.210;5.158;2023-07-13T09:13:20;101520.19;;;20.59;100.00
65329;BME280;51941;52.210;5.158;2023-07-13T09:15:52;101528.31;;;20.49;100.00
65329;BME280;51941;52.210;5.158;2023-07-13T09:18:27;101530.81;;;20.40;100.00
65329;BME280;51941;52.210;5.158;2023-07-13T09:20:58;101530.53;;;20.42;100.00
65329;BME280;51941;52.210;5.158;2023-07-13T09:23:28;101530.53;;;20.42;100.00
65329;BME280;51941;52.210;5.158;2023-07-13T09:26:01;101529.34;;;20.58;100.00
65329;BME280;51941;52.210;5.158;2023-07-13T09:28:33;101542.59;;;20.83;100.00
65329;BME280;51941;52.210;5.158;2023-07-13T09:31:04;101551.06;;;21.05;100.00
65329;BME280;51941;52.210;5.158;2023-07-13T09:33:32;101545.13;;;21.32;100.00
65329;BME280;51941;52.210;5.158;2023-07-13T09:36:00;101546.97;;;21.61;100.00
65329;BME280;51941;52.210;5.158;2023-07-13T09:38:28;101545.16;;;21.80;100.00
65329;BME280;51941;52.210;5.158;2023-07-13T09:41:11;101544.06;;;21.81;100.00
65329;BME280;51941;52.210;5.158;2023-07-13T09:44:01;101539.13;;;21.88;100.00
65329;BME280;51941;52.210;5.158;2023-07-13T09:46:29;101542.03;;;21.92;100.00
65329;BME280;51941;52.210;5.158;2023-07-13T09:48:56;101538.84;;;21.89;100.00
65329;BME280;51941;52.210;5.158;2023-07-13T09:51:23;101543.41;;;21.89;100.00
65329;BME280;51941;52.210;5.158;2023-07-13T09:53:50;101549.63;;;21.89;100.00
65329;BME280;51941;52.210;5.158;2023-07-13T09:56:21;101542.78;;;21.97;100.00
65329;BME280;51941;52.210;5.158;2023-07-13T09:58:49;101546.72;;;22.05;100.00
65329;BME280;51941;52.210;5.158;2023-07-13T10:01:33;101554.47;;;22.11;100.00
65329;BME280;51941;52.210;5.158;2023-07-13T10:04:00;101543.69;;;22.11;100.00
65329;BME280;51941;52.210;5.158;2023-07-13T10:06:27;101559.91;;;22.06;100.00
65329;BME280;51941;52.210;5.158;2023-07-13T10:08:56;101554.44;;;21.93;100.00
65329;BME280;51941;52.210;5.158;2023-07-13T10:11:24;101559.03;;;21.92;100.00
65329;BME280;51941;52.210;5.158;2023-07-13T10:13:56;101548.53;;;21.91;100.00
65329;BME280;51941;52.210;5.158;2023-07-13T10:16:26;101556.72;;;21.80;100.00
65329;BME280;51941;52.210;5.158;2023-07-13T10:19:02;101568.47;;;21.66;100.00
65329;BME280;51941;52.210;5.158;2023-07-13T10:21:34;101568.75;;;21.40;100.00
65329;BME280;51941;52.210;5.158;2023-07-13T10:24:10;101573.69;;;21.33;100.00
65329;BME280;51941;52.210;5.158;2023-07-13T10:26:46;101573.78;;;21.23;100.00
65329;BME280;51941;52.210;5.158;2023-07-13T10:29:14;101572.91;;;20.94;100.00
65329;BME280;51941;52.210;5.158;2023-07-13T10:31:44;101569.69;;;20.92;100.00
65329;BME280;51941;52.210;5.158;2023-07-13T10:34:13;101566.19;;;20.96;100.00
65329;BME280;51941;52.210;5.158;2023-07-13T10:36:42;101569.38;;;21.03;100.00
65329;BME280;51941;52.210;5.158;2023-07-13T10:39:16;101569.84;;;21.10;100.00
65329;BME280;51941;52.210;5.158;2023-07-13T10:41:46;101579.78;;;21.15;100.00
65329;BME280;51941;52.210;5.158;2023-07-13T10:44:20;101572.25;;;21.12;100.00
65329;BME280;51941;52.210;5.158;2023-07-13T10:46:51;101582.81;;;21.03;100.00
65329;BME280;51941;52.210;5.158;2023-07-13T10:49:20;101586.91;;;20.96;100.00
65329;BME280;51941;52.210;5.158;2023-07-13T10:51:48;101582.72;;;20.80;100.00
65329;BME280;51941;52.210;5.158;2023-07-13T10:54:22;101587.09;;;20.70;100.00
65329;BME280;51941;52.210;5.158;2023-07-13T10:57:06;101588.28;;;20.54;100.00
65329;BME280;51941;52.210;5.158;2023-07-13T10:59:35;101590.47;;;20.47;100.00
65329;BME280;51941;52.210;5.158;2023-07-13T11:02:11;101591.47;;;20.56;100.00
65329;BME280;51941;52.210;5.158;2023-07-13T11:04:43;101589.72;;;20.81;100.00
65329;BME280;51941;52.210;5.158;2023-07-13T11:07:19;101595.81;;;20.91;100.00
65329;BME280;51941;52.210;5.158;2023-07-13T11:09:51;101599.50;;;21.05;100.00
65329;BME280;51941;52.210;5.158;2023-07-13T11:15:12;101599.97;;;21.12;100.00
65329;BME280;51941;52.210;5.158;2023-07-13T11:17:50;101607.88;;;20.99;100.00
65329;BME280;51941;52.210;5.158;2023-07-13T11:20:32;101601.97;;;20.97;100.00
65329;BME280;51941;52.210;5.158;2023-07-13T11:23:20;101603.50;;;21.08;100.00
65329;BME280;51941;52.210;5.158;2023-07-13T11:25:48;101586.75;;;21.16;100.00
65329;BME280;51941;52.210;5.158;2023-07-13T11:28:24;101604.56;;;21.41;100.00
65329;BME280;51941;52.210;5.158;2023-07-13T11:31:03;101603.88;;;21.54;95.53
65329;BME280;51941;52.210;5.158;2023-07-13T11:33:56;101604.31;;;21.37;92.71
65329;BME280;51941;52.210;5.158;2023-07-13T11:36:35;101604.28;;;21.42;94.33
65329;BME280;51941;52.210;5.158;2023-07-13T11:39:15;101609.84;;;21.51;93.50
65329;BME280;51941;52.210;5.158;2023-07-13T11:41:45;101609.00;;;21.56;92.49
65329;BME280;51941;52.210;5.158;2023-07-13T11:44:17;101609.41;;;21.68;90.45
65329;BME280;51941;52.210;5.158;2023-07-13T11:46:46;101607.72;;;21.72;90.58
65329;BME280;51941;52.210;5.158;2023-07-13T11:49:16;101601.25;;;21.73;86.26
65329;BME280;51941;52.210;5.158;2023-07-13T11:51:45;101608.69;;;21.86;86.72
65329;BME280;51941;52.210;5.158;2023-07-13T11:54:22;101604.31;;;21.90;86.56
65329;BME280;51941;52.210;5.158;2023-07-13T11:56:50;101606.94;;;21.71;87.35
65329;BME280;51941;52.210;5.158;2023-07-13T11:59:17;101604.97;;;21.82;86.72
65329;BME280;51941;52.210;5.158;2023-07-13T12:01:48;101613.28;;;21.85;87.11
65329;BME280;51941;52.210;5.158;2023-07-13T12:04:21;101614.75;;;21.97;88.25
65329;BME280;51941;52.210;5.158;2023-07-13T12:06:55;101612.00;;;22.02;86.66
65329;BME280;51941;52.210;5.158;2023-07-13T12:09:27;101608.56;;;21.96;86.07
65329;BME280;51941;52.210;5.158;2023-07-13T12:11:55;101615.78;;;22.01;85.09
65329;BME280;51941;52.210;5.158;2023-07-13T12:14:22;101611.56;;;21.95;84.36
65329;BME280;51941;52.210;5.158;2023-07-13T12:16:52;101616.88;;;22.00;84.74
65329;BME280;51941;52.210;5.158;2023-07-13T12:19:22;101614.34;;;22.08;85.51
65329;BME280;51941;52.210;5.158;2023-07-13T12:21:52;101606.34;;;22.22;82.54
65329;BME280;51941;52.210;5.158;2023-07-13T12:24:21;101604.25;;;22.38;80.51
65329;BME280;51941;52.210;5.158;2023-07-13T12:26:54;101612.22;;;22.48;81.12
65329;BME280;51941;52.210;5.158;2023-07-13T12:29:21;101607.13;;;22.46;79.26
65329;BME280;51941;52.210;5.158;2023-07-13T12:31:49;101614.91;;;22.48;79.79
65329;BME280;51941;52.210;5.158;2023-07-13T12:34:18;101624.63;;;22.49;79.28
65329;BME280;51941;52.210;5.158;2023-07-13T12:36:50;101619.75;;;22.51;77.32
65329;BME280;51941;52.210;5.158;2023-07-13T12:39:23;101607.78;;;22.38;77.97
65329;BME280;51941;52.210;5.158;2023-07-13T12:41:52;101609.25;;;22.49;78.00
65329;BME280;51941;52.210;5.158;2023-07-13T12:44:26;101619.03;;;22.40;77.84
65329;BME280;51941;52.210;5.158;2023-07-13T12:46:57;101622.19;;;22.29;78.05
65329;BME280;51941;52.210;5.158;2023-07-13T12:49:28;101614.09;;;22.29;78.57
65329;BME280;51941;52.210;5.158;2023-07-13T12:51:57;101616.28;;;22.26;80.15
65329;BME280;51941;52.210;5.158;2023-07-13T12:54:26;101607.75;;;22.19;80.30
65329;BME280;51941;52.210;5.158;2023-07-13T12:56:54;101625.00;;;22.18;80.18